Time;durP1;ratioP1;P1;durP2;ratioP2;P2;SDS_P1;SDS_P2;PMS_P1;PMS_P2;Temp;Humidity;BMP_temperature;BMP_pressure;BME280_temperature;BME280_humidity;BME280_pressure;Samples;Min_cycle;Max_cycle;Signal;HPM_P1;HPM_P2
2023/09/10 00:00:35;;;;;;;7.63;6.88;;;27.50;59.60;28.10;100951.00;;;;5010250;28;20222;-55
2023/09/10 00:03:00;;;;;;;7.68;6.97;;;27.40;59.50;28.10;100940.00;;;;5009258;28;20243;-55
2023/09/10 00:05:26;;;;;;;7.63;6.85;;;27.40;59.60;28.00;100940.00;;;;5009121;28;20582;-56
2023/09/10 00:07:52;;;;;;;7.30;6.60;;;27.30;59.60;28.00;100945.00;;;;5008676;28;20207;-56
2023/09/10 00:10:18;;;;;;;7.85;7.25;;;27.30;59.60;28.00;100935.00;;;;5008815;28;20781;-56
2023/09/10 00:12:44;;;;;;;7.70;7.03;;;27.30;59.80;27.90;100940.00;;;;5009028;28;20182;-55
2023/09/10 00:15:10;;;;;;;7.93;7.22;;;27.40;59.50;27.90;100936.00;;;;5008885;28;20214;-55
2023/09/10 00:17:35;;;;;;;7.40;6.75;;;27.30;59.50;27.90;100925.00;;;;5008476;28;20213;-55
2023/09/10 00:20:01;;;;;;;7.68;6.97;;;27.30;59.60;27.90;100942.00;;;;5007588;28;20182;-55
2023/09/10 00:22:27;;;;;;;7.57;6.95;;;27.30;59.70;27.90;100940.00;;;;5008841;28;20211;-58
2023/09/10 00:24:53;;;;;;;8.40;7.47;;;27.30;59.40;27.90;100932.00;;;;5008724;28;20242;-55
2023/09/10 00:27:18;;;;;;;7.70;7.00;;;27.40;59.40;27.90;100938.00;;;;5025788;28;20171;-55
2023/09/10 00:29:44;;;;;;;7.55;6.82;;;27.30;59.30;27.80;100940.00;;;;5019881;28;20506;-55
2023/09/10 00:32:10;;;;;;;7.85;7.15;;;27.30;59.40;27.60;100933.00;;;;5010089;28;20175;-55
2023/09/10 00:34:35;;;;;;;7.60;6.93;;;27.20;59.60;27.80;100936.00;;;;5009442;28;20184;-55
2023/09/10 00:37:01;;;;;;;7.70;7.00;;;27.20;59.60;27.80;100926.00;;;;5009940;28;20239;-55
2023/09/10 00:39:27;;;;;;;7.30;6.60;;;27.20;59.40;27.70;100925.00;;;;5009633;28;20250;-56
2023/09/10 00:41:54;;;;;;;7.15;6.55;;;27.20;59.60;27.70;100931.00;;;;5022850;28;20196;-56
2023/09/10 00:44:23;;;;;;;7.40;6.80;;;27.10;59.60;27.70;100923.00;;;;5018171;28;20180;-56
2023/09/10 00:46:50;;;;;;;8.30;7.28;;;27.20;59.70;27.50;100921.00;;;;5008858;28;20173;-55
2023/09/10 00:49:16;;;;;;;7.15;6.55;;;27.20;59.60;27.70;100917.00;;;;5008774;28;20238;-54
2023/09/10 00:51:42;;;;;;;7.90;7.20;;;27.20;59.30;27.70;100925.00;;;;5008472;28;20773;-55
2023/09/10 00:54:08;;;;;;;7.68;6.88;;;27.20;59.30;27.70;100926.00;;;;5007281;28;20186;-55
2023/09/10 00:56:33;;;;;;;7.22;6.63;;;27.20;59.30;27.70;100923.00;;;;5008081;28;20810;-47
2023/09/10 00:58:59;;;;;;;7.63;6.90;;;27.20;59.30;27.50;100913.00;;;;5008250;28;20282;-47
2023/09/10 01:01:25;;;;;;;7.47;6.78;;;27.20;59.30;27.60;100921.00;;;;5008359;28;20234;-47
2023/09/10 01:03:51;;;;;;;8.63;7.00;;;27.10;59.40;27.60;100915.00;;;;5007055;28;20179;-47
2023/09/10 01:06:17;;;;;;;7.45;6.75;;;27.10;59.30;27.60;100928.00;;;;5008136;28;20661;-48
2023/09/10 01:08:42;;;;;;;10.80;6.93;;;27.10;59.20;27.50;100927.00;;;;5006580;28;20214;-47
2023/09/10 01:11:26;;;;;;;7.10;6.50;;;27.10;59.40;27.50;100928.00;;;;4990510;28;20195;-47
2023/09/10 01:14:11;;;;;;;7.20;6.60;;;27.10;59.30;27.50;100933.00;;;;4976918;28;20175;-46
2023/09/10 01:16:47;;;;;;;7.63;6.93;;;27.10;59.30;27.50;100928.00;;;;5006667;28;20831;-48
2023/09/10 01:19:25;;;;;;;7.80;7.10;;;27.10;59.40;27.50;100935.00;;;;5008184;28;20705;-47
2023/09/10 01:21:57;;;;;;;7.47;6.88;;;27.10;59.20;27.40;100923.00;;;;5007132;28;20218;-49
2023/09/10 01:24:47;;;;;;;7.63;6.93;;;27.00;59.20;27.40;100932.00;;;;5007199;28;20238;-48
2023/09/10 01:27:16;;;;;;;7.43;6.70;;;27.00;59.20;27.40;100927.00;;;;5008277;28;20224;-47
2023/09/10 01:29:42;;;;;;;7.20;6.55;;;27.00;59.10;27.40;100916.00;;;;5008147;28;20266;-48
2023/09/10 01:32:28;;;;;;;7.60;6.97;;;27.00;59.10;27.30;100915.00;;;;5007940;28;20175;-47
2023/09/10 01:35:10;;;;;;;7.97;7.18;;;26.90;59.10;27.30;100873.00;;;;5006763;28;20223;-48
2023/09/10 01:37:58;;;;;;;7.60;6.80;;;26.90;59.30;27.30;100915.00;;;;5006163;28;20246;-47
2023/09/10 01:40:28;;;;;;;7.78;7.00;;;26.80;59.50;27.20;100917.00;;;;4991771;28;20271;-47
2023/09/10 01:42:54;;;;;;;7.60;6.90;;;26.80;59.80;27.20;100928.00;;;;4974575;28;20190;-47
2023/09/10 01:45:20;;;;;;;7.45;6.75;;;26.80;59.80;27.20;100916.00;;;;5006068;28;20577;-48
2023/09/10 01:47:46;;;;;;;8.02;7.22;;;26.70;59.70;27.20;100924.00;;;;5005818;28;20281;-47
2023/09/10 01:50:12;;;;;;;7.97;7.38;;;26.70;59.80;27.10;100924.00;;;;5006520;28;20313;-48
2023/09/10 01:52:37;;;;;;;7.63;7.03;;;26.60;59.90;27.10;100917.00;;;;4990095;28;20184;-48
2023/09/10 01:55:04;;;;;;;8.07;7.38;;;26.60;60.00;27.10;100914.00;;;;5007912;28;20191;-47
2023/09/10 01:57:29;;;;;;;8.45;7.70;;;26.60;60.00;27.10;100905.00;;;;5009403;28;20202;-48
2023/09/10 01:59:55;;;;;;;8.52;7.82;;;26.60;60.00;27.10;100919.00;;;;5010177;28;20668;-47
2023/09/10 02:02:21;;;;;;;8.15;7.35;;;26.70;59.80;27.10;100921.00;;;;5009872;28;20223;-47
2023/09/10 02:04:47;;;;;;;7.72;7.13;;;26.70;59.70;27.00;100917.00;;;;5008805;28;20657;-48
2023/09/10 02:07:13;;;;;;;7.97;7.28;;;26.70;59.70;27.00;100916.00;;;;5011003;28;20210;-47
2023/09/10 02:09:38;;;;;;;7.80;7.10;;;26.60;59.60;27.00;100926.00;;;;5010773;28;20203;-47
2023/09/10 02:12:04;;;;;;;7.60;6.93;;;26.60;59.60;27.00;100921.00;;;;5010993;28;20214;-47
2023/09/10 02:14:30;;;;;;;8.20;7.50;;;26.60;59.60;27.00;100929.00;;;;5010922;28;20210;-48
2023/09/10 02:16:56;;;;;;;8.00;7.35;;;26.60;59.60;26.90;100930.00;;;;5010757;28;20757;-48
2023/09/10 02:19:21;;;;;;;8.15;7.40;;;26.60;59.60;26.90;100912.00;;;;5010890;28;20314;-48
2023/09/10 02:21:47;;;;;;;8.30;7.60;;;26.60;59.60;26.90;100926.00;;;;5011123;28;20203;-49
2023/09/10 02:24:13;;;;;;;7.85;7.10;;;26.60;59.60;26.90;100923.00;;;;5010824;28;20175;-47
2023/09/10 02:26:38;;;;;;;8.38;7.43;;;26.60;59.60;26.90;100928.00;;;;5009422;28;20230;-47
2023/09/10 02:29:04;;;;;;;8.40;7.60;;;26.50;59.60;26.90;100933.00;;;;5024053;28;20203;-47
2023/09/10 02:31:30;;;;;;;8.00;7.30;;;26.50;59.60;26.80;100934.00;;;;5025519;28;20518;-48
2023/09/10 02:34:00;;;;;;;8.02;7.32;;;26.50;59.60;26.80;100931.00;;;;5011561;28;20549;-48
2023/09/10 02:36:29;;;;;;;7.55;6.85;;;26.60;59.60;26.80;100935.00;;;;5010839;28;20180;-48
2023/09/10 02:38:55;;;;;;;7.90;7.20;;;26.50;59.60;26.80;100933.00;;;;5010587;28;20298;-49
2023/09/10 02:41:21;;;;;;;7.88;7.13;;;26.40;59.50;26.70;100940.00;;;;5010462;28;20609;-47
2023/09/10 02:43:47;;;;;;;8.20;7.40;;;26.40;59.50;26.70;100937.00;;;;5022460;28;20179;-47
2023/09/10 02:46:12;;;;;;;8.10;7.32;;;26.50;59.60;26.70;100940.00;;;;5022101;28;20176;-47
2023/09/10 02:48:38;;;;;;;7.63;6.93;;;26.50;59.60;26.70;100943.00;;;;5010561;28;20211;-48
2023/09/10 02:51:04;;;;;;;7.97;7.20;;;26.40;59.50;26.70;100943.00;;;;5010643;28;20192;-48
2023/09/10 02:53:29;;;;;;;8.00;7.40;;;26.40;59.50;26.70;100941.00;;;;5008849;28;20262;-48
2023/09/10 02:56:02;;;;;;;7.18;6.57;;;26.40;59.50;26.60;100939.00;;;;5010236;28;20241;-47
2023/09/10 02:58:29;;;;;;;8.55;7.75;;;26.30;59.40;26.60;100950.00;;;;5007694;28;20206;-47
2023/09/10 03:00:54;;;;;;;8.30;7.60;;;26.30;59.60;26.60;100945.00;;;;5010564;28;20214;-47
2023/09/10 03:03:21;;;;;;;8.70;7.90;;;26.30;59.70;26.60;100944.00;;;;5011514;28;20546;-47
2023/09/10 03:05:47;;;;;;;7.72;7.03;;;26.30;59.50;26.50;100943.00;;;;5011783;28;20660;-48
2023/09/10 03:08:12;;;;;;;8.50;7.68;;;26.30;59.60;26.50;100940.00;;;;5010622;28;20195;-48
2023/09/10 03:10:38;;;;;;;8.00;7.30;;;26.20;59.70;26.50;100951.00;;;;5011045;28;20183;-47
2023/09/10 03:13:04;;;;;;;8.10;7.40;;;26.30;59.80;26.50;100942.00;;;;5011300;28;20571;-47
2023/09/10 03:15:30;;;;;;;8.45;7.65;;;26.30;60.60;26.50;100944.00;;;;5011292;28;20274;-48
2023/09/10 03:17:55;;;;;;;8.40;7.70;;;26.20;59.80;26.50;100948.00;;;;5010935;28;20207;-47
2023/09/10 03:20:21;;;;;;;8.40;7.68;;;26.20;59.80;26.40;100945.00;;;;5010948;28;20262;-47
2023/09/10 03:22:47;;;;;;;8.27;7.57;;;26.20;59.80;26.40;100957.00;;;;5010829;28;20259;-47
2023/09/10 03:25:13;;;;;;;8.35;7.65;;;26.20;59.80;26.40;100953.00;;;;5010979;28;20777;-47
2023/09/10 03:27:38;;;;;;;8.00;7.30;;;26.10;59.80;26.40;100958.00;;;;5010424;28;20319;-47
2023/09/10 03:30:05;;;;;;;7.43;6.82;;;26.20;59.90;26.30;100946.00;;;;5010979;28;20218;-47
2023/09/10 03:32:31;;;;;;;8.50;7.65;;;26.10;60.00;26.30;100943.00;;;;5010553;28;20184;-47
2023/09/10 03:34:57;;;;;;;8.40;7.70;;;26.10;60.30;26.30;100953.00;;;;5010699;28;20179;-48
2023/09/10 03:37:22;;;;;;;8.48;7.68;;;26.10;60.10;26.30;100954.00;;;;5010156;28;20255;-48
2023/09/10 03:39:48;;;;;;;8.43;7.63;;;26.10;59.90;26.30;100948.00;;;;5010629;28;20238;-48
2023/09/10 03:42:16;;;;;;;8.25;7.55;;;26.10;59.90;26.30;100953.00;;;;5010592;28;20211;-48
2023/09/10 03:44:42;;;;;;;7.88;7.28;;;26.00;59.80;26.20;100953.00;;;;5010466;28;20259;-47
2023/09/10 03:47:08;;;;;;;8.07;7.28;;;26.00;59.80;26.20;100950.00;;;;5010060;28;20186;-47
2023/09/10 03:49:33;;;;;;;8.77;7.70;;;26.00;59.80;26.20;100949.00;;;;5008918;28;20274;-47
2023/09/10 03:51:59;;;;;;;8.75;7.82;;;26.00;59.90;26.20;100957.00;;;;5010346;28;20184;-47
2023/09/10 03:54:25;;;;;;;8.18;7.50;;;26.00;59.90;26.20;100957.00;;;;5010393;28;20217;-47
2023/09/10 03:56:51;;;;;;;7.82;7.15;;;25.90;59.90;26.10;100952.00;;;;5010003;28;20186;-47
2023/09/10 03:59:17;;;;;;;9.68;7.40;;;25.90;59.90;26.10;100952.00;;;;5010088;28;20671;-47
2023/09/10 04:01:42;;;;;;;8.30;7.50;;;25.90;60.00;26.10;100955.00;;;;5009588;28;20579;-48
2023/09/10 04:04:08;;;;;;;8.35;7.65;;;25.90;59.90;26.10;100950.00;;;;5009934;28;20178;-48
2023/09/10 04:06:34;;;;;;;8.35;7.65;;;25.90;60.00;26.00;100941.00;;;;5009742;28;20195;-47
2023/09/10 04:09:00;;;;;;;7.45;6.72;;;25.90;60.00;26.00;100945.00;;;;5010199;28;20253;-47
2023/09/10 04:11:25;;;;;;;8.35;7.07;;;25.80;60.00;26.00;100946.00;;;;5010039;28;20188;-48
2023/09/10 04:13:51;;;;;;;8.07;7.28;;;25.80;60.00;26.00;100950.00;;;;5010128;28;20176;-47
2023/09/10 04:16:17;;;;;;;8.05;7.45;;;25.80;60.10;26.00;100947.00;;;;5010274;28;20191;-47
2023/09/10 04:18:43;;;;;;;8.27;7.53;;;25.80;60.10;25.90;100949.00;;;;5008715;28;20237;-47
2023/09/10 04:21:09;;;;;;;7.72;7.13;;;25.80;60.10;25.90;100940.00;;;;5009720;28;20207;-48
2023/09/10 04:23:35;;;;;;;7.85;7.20;;;25.70;60.10;25.90;100942.00;;;;5009486;28;20191;-47
2023/09/10 04:26:01;;;;;;;8.18;7.38;;;25.70;60.10;25.90;100939.00;;;;5009791;28;20187;-48
2023/09/10 04:28:26;;;;;;;8.60;7.80;;;25.70;60.10;25.90;100941.00;;;;5009320;28;20230;-48
2023/09/10 04:30:52;;;;;;;8.18;7.53;;;25.70;60.10;25.90;100950.00;;;;5030270;28;20171;-48
2023/09/10 04:33:18;;;;;;;8.05;7.07;;;25.70;60.10;25.90;100946.00;;;;5017652;28;20176;-47
2023/09/10 04:35:51;;;;;;;7.90;7.10;;;25.60;60.20;25.80;100937.00;;;;5009830;28;20327;-48
2023/09/10 04:38:17;;;;;;;7.90;7.20;;;25.60;61.10;25.80;100952.00;;;;5009449;28;20203;-47
2023/09/10 04:40:42;;;;;;;8.43;7.60;;;25.60;60.40;25.80;100921.00;;;;5009862;28;20198;-48
2023/09/10 04:43:08;;;;;;;7.82;7.13;;;25.60;60.30;25.80;100942.00;;;;5009723;28;20179;-48
2023/09/10 04:45:34;;;;;;;8.40;7.70;;;25.60;60.40;25.80;100941.00;;;;5029419;28;20227;-48
2023/09/10 04:48:02;;;;;;;8.02;7.22;;;25.60;60.50;25.80;100944.00;;;;5014584;28;20191;-48
2023/09/10 04:50:28;;;;;;;8.32;7.53;;;25.60;60.60;25.70;100953.00;;;;5009795;28;20179;-48
2023/09/10 04:52:53;;;;;;;10.02;9.23;;;25.50;60.50;25.70;100949.00;;;;5009777;28;20201;-48
2023/09/10 04:55:19;;;;;;;26.52;24.23;;;25.50;60.50;25.70;100950.00;;;;5005511;28;20266;-48
2023/09/10 04:57:46;;;;;;;17.45;15.85;;;25.50;60.50;25.70;100948.00;;;;5008804;28;20191;-48
2023/09/10 05:00:12;;;;;;;16.00;14.68;;;25.50;60.50;25.70;100938.00;;;;5007548;28;20184;-48
2023/09/10 05:02:38;;;;;;;12.70;11.68;;;25.50;60.50;25.60;100950.00;;;;5009126;28;20261;-47
2023/09/10 05:05:04;;;;;;;11.00;10.10;;;25.50;60.50;25.60;100944.00;;;;5008061;28;20175;-48
2023/09/10 05:07:30;;;;;;;10.63;9.73;;;25.50;60.50;25.60;100949.00;;;;5008889;28;20207;-47
2023/09/10 05:09:55;;;;;;;10.70;9.60;;;25.50;60.50;25.60;100950.00;;;;5008962;28;20249;-47
2023/09/10 05:12:21;;;;;;;9.60;8.80;;;25.50;60.50;25.60;100955.00;;;;5008569;28;20229;-47
2023/09/10 05:14:47;;;;;;;9.00;8.30;;;25.50;60.50;25.60;100942.00;;;;5008571;28;20596;-47
2023/09/10 05:17:13;;;;;;;8.95;8.05;;;25.40;60.50;25.50;100953.00;;;;5008794;28;20183;-48
2023/09/10 05:19:39;;;;;;;8.20;7.50;;;25.40;60.60;25.50;100961.00;;;;5008612;28;20215;-47
2023/09/10 05:22:04;;;;;;;9.00;8.10;;;25.50;61.50;25.50;100960.00;;;;5009007;28;20287;-48
2023/09/10 05:24:30;;;;;;;8.30;7.57;;;25.40;60.70;25.50;100960.00;;;;5008478;28;20180;-48
2023/09/10 05:26:56;;;;;;;8.63;7.82;;;25.40;60.80;25.50;100943.00;;;;5008880;28;20186;-47
2023/09/10 05:29:22;;;;;;;8.52;7.70;;;25.30;60.70;25.50;100964.00;;;;5007388;28;20548;-48
2023/09/10 05:31:48;;;;;;;7.95;7.25;;;25.30;60.70;25.50;100966.00;;;;5012881;28;20183;-47
2023/09/10 05:34:14;;;;;;;7.80;7.20;;;25.30;60.80;25.50;100965.00;;;;5012430;28;20196;-46
2023/09/10 05:36:39;;;;;;;8.13;7.32;;;25.30;60.90;25.40;100972.00;;;;4994808;28;20298;-47
2023/09/10 05:39:05;;;;;;;7.95;7.28;;;25.30;60.90;25.40;100965.00;;;;5011372;28;20199;-48
2023/09/10 05:41:31;;;;;;;8.35;7.45;;;25.20;60.90;25.40;100961.00;;;;5012289;28;20286;-47
2023/09/10 05:43:57;;;;;;;7.75;7.13;;;25.30;61.10;25.40;100959.00;;;;5011727;28;20171;-48
2023/09/10 05:46:23;;;;;;;8.20;7.45;;;25.20;61.20;25.40;100962.00;;;;5012010;28;20211;-47
2023/09/10 05:48:48;;;;;;;7.95;7.20;;;25.20;61.20;25.40;100966.00;;;;5012196;28;20255;-48
2023/09/10 05:51:14;;;;;;;7.93;7.13;;;25.20;61.20;25.30;100965.00;;;;5011106;28;20270;-47
2023/09/10 05:53:42;;;;;;;7.82;7.13;;;25.20;61.20;25.30;100966.00;;;;5011924;28;20187;-47
2023/09/10 05:56:08;;;;;;;7.50;6.90;;;25.20;61.20;25.30;100969.00;;;;5012540;28;20188;-47
2023/09/10 05:58:34;;;;;;;7.60;7.00;;;25.20;61.20;25.30;100925.00;;;;5010406;28;20199;-48
2023/09/10 06:01:00;;;;;;;8.20;7.50;;;25.20;61.20;25.30;100970.00;;;;5012336;28;20805;-48
2023/09/10 06:03:26;;;;;;;7.82;7.20;;;25.10;61.50;25.30;100965.00;;;;5011167;28;20271;-48
2023/09/10 06:05:51;;;;;;;7.88;7.20;;;25.10;61.30;25.30;100969.00;;;;5011948;28;20171;-48
2023/09/10 06:08:17;;;;;;;8.82;8.02;;;25.10;61.50;25.30;100970.00;;;;5010247;28;20234;-47
2023/09/10 06:10:43;;;;;;;8.23;7.53;;;25.10;61.50;25.30;100977.00;;;;5011652;28;20237;-47
2023/09/10 06:13:08;;;;;;;8.13;7.43;;;25.10;61.70;25.20;100975.00;;;;5011223;28;20238;-47
2023/09/10 06:15:34;;;;;;;8.23;7.53;;;25.10;61.70;25.20;100983.00;;;;5011468;28;20198;-48
2023/09/10 06:18:00;;;;;;;8.45;7.65;;;25.10;61.80;25.20;100983.00;;;;5011498;28;20222;-48
2023/09/10 06:20:26;;;;;;;8.55;7.75;;;25.10;61.90;25.20;100975.00;;;;5010307;28;20183;-48
2023/09/10 06:22:52;;;;;;;7.90;7.20;;;25.00;61.80;25.20;100982.00;;;;5011590;28;20176;-48
2023/09/10 06:25:18;;;;;;;7.90;7.18;;;25.00;62.10;25.20;100971.00;;;;5011496;28;20262;-48
2023/09/10 06:27:44;;;;;;;8.93;7.57;;;25.00;62.40;25.20;100977.00;;;;4994057;28;20338;-48
2023/09/10 06:30:10;;;;;;;7.90;7.20;;;25.00;61.90;25.20;100985.00;;;;5015086;28;20160;-48
2023/09/10 06:32:36;;;;;;;8.43;7.70;;;25.00;62.00;25.20;100985.00;;;;5033523;28;20183;-48
2023/09/10 06:35:02;;;;;;;7.43;6.78;;;25.00;62.30;25.20;100989.00;;;;5011574;28;20234;-48
2023/09/10 06:37:27;;;;;;;8.43;7.70;;;25.00;62.40;25.20;100994.00;;;;5011812;28;20237;-48
2023/09/10 06:39:53;;;;;;;8.10;7.40;;;25.00;62.50;25.20;100993.00;;;;5010507;28;20180;-49
2023/09/10 06:42:19;;;;;;;8.30;7.65;;;24.90;63.20;25.20;100992.00;;;;5011009;28;20272;-47
2023/09/10 06:44:45;;;;;;;8.30;7.47;;;24.90;62.50;25.20;100982.00;;;;5015107;28;20297;-47
2023/09/10 06:47:11;;;;;;;8.48;7.68;;;24.90;62.70;25.20;100981.00;;;;5032680;28;20229;-48
2023/09/10 06:49:37;;;;;;;8.23;7.53;;;24.90;62.80;25.20;100985.00;;;;5011868;28;20211;-48
2023/09/10 06:52:04;;;;;;;8.55;7.85;;;24.90;62.90;25.20;100990.00;;;;5011554;28;20179;-48
2023/09/10 06:54:30;;;;;;;8.20;7.22;;;24.90;63.10;25.10;100981.00;;;;5010867;28;20270;-48
2023/09/10 06:56:58;;;;;;;8.63;7.78;;;24.90;63.30;25.10;100984.00;;;;5011047;28;20179;-48
2023/09/10 06:59:27;;;;;;;8.23;7.50;;;24.80;63.50;25.10;100986.00;;;;5010052;28;20199;-48
2023/09/10 07:01:53;;;;;;;8.02;7.22;;;24.90;63.80;25.10;100991.00;;;;5010191;28;20206;-47
2023/09/10 07:04:20;;;;;;;7.75;7.03;;;24.80;63.60;25.10;100985.00;;;;5009792;28;20179;-47
2023/09/10 07:06:47;;;;;;;8.52;7.72;;;24.80;64.10;25.10;100991.00;;;;5009550;28;20168;-48
2023/09/10 07:09:16;;;;;;;7.70;7.00;;;24.90;64.50;25.10;100993.00;;;;5010872;28;20200;-48
2023/09/10 07:11:42;;;;;;;8.48;7.63;;;24.80;64.40;25.10;100997.00;;;;5009307;28;20186;-48
2023/09/10 07:14:08;;;;;;;8.25;7.43;;;24.70;64.40;25.10;100990.00;;;;5009993;28;20167;-48
2023/09/10 07:16:34;;;;;;;7.93;7.13;;;24.80;64.50;25.10;100994.00;;;;5010058;28;20673;-48
2023/09/10 07:19:00;;;;;;;7.90;7.20;;;24.70;64.60;25.10;100999.00;;;;5010351;28;20299;-47
2023/09/10 07:21:27;;;;;;;7.82;7.13;;;24.80;64.90;25.10;100997.00;;;;5010494;28;20207;-47
2023/09/10 07:23:53;;;;;;;8.45;7.53;;;24.70;64.90;25.10;100996.00;;;;5010133;28;20255;-48
2023/09/10 07:26:18;;;;;;;9.77;7.60;;;24.70;65.00;25.10;100999.00;;;;5010406;28;20253;-59
2023/09/10 07:28:44;;;;;;;8.25;7.45;;;24.70;65.00;25.10;100996.00;;;;5009074;28;20694;-48
2023/09/10 07:31:10;;;;;;;7.10;6.40;;;24.70;65.30;25.10;101006.00;;;;5010298;28;20176;-48
2023/09/10 07:33:36;;;;;;;7.82;7.13;;;24.70;65.40;25.10;101008.00;;;;5010059;28;20183;-48
2023/09/10 07:36:01;;;;;;;8.05;7.25;;;24.70;65.70;25.10;101015.00;;;;5007293;28;20235;-47
2023/09/10 07:38:28;;;;;;;8.23;7.47;;;24.70;65.80;25.10;101015.00;;;;5008955;28;20212;-48
2023/09/10 07:40:54;;;;;;;8.35;7.22;;;24.70;66.10;25.10;101015.00;;;;5009863;28;20287;-49
2023/09/10 07:43:22;;;;;;;7.72;6.90;;;24.70;66.00;25.10;101021.00;;;;5009075;28;20182;-48
2023/09/10 07:45:49;;;;;;;7.68;6.97;;;24.70;66.20;25.00;101026.00;;;;5009996;28;20723;-47
2023/09/10 07:48:15;;;;;;;7.75;7.05;;;24.70;66.30;25.00;101021.00;;;;5009429;28;20249;-47
2023/09/10 07:50:42;;;;;;;8.10;7.30;;;24.70;66.40;25.00;101022.00;;;;5010207;28;20471;-49
2023/09/10 07:53:07;;;;;;;8.45;6.70;;;24.60;66.40;25.00;101025.00;;;;5010108;28;20187;-48
2023/09/10 07:55:36;;;;;;;7.82;7.13;;;24.60;66.40;25.00;101022.00;;;;5009537;28;20183;-47
2023/09/10 07:58:02;;;;;;;7.32;6.63;;;24.60;66.50;25.00;101032.00;;;;5009348;28;20203;-49
2023/09/10 08:00:29;;;;;;;8.82;7.45;;;24.60;66.40;25.00;101027.00;;;;5009742;28;20262;-48
2023/09/10 08:02:55;;;;;;;9.77;7.15;;;24.50;67.00;25.00;101027.00;;;;5009646;28;20172;-48
2023/09/10 08:05:21;;;;;;;7.57;6.88;;;24.50;67.00;25.00;101041.00;;;;5009669;28;20180;-49
2023/09/10 08:07:46;;;;;;;12.40;7.32;;;24.50;67.10;25.10;101033.00;;;;5009224;28;20196;-48
2023/09/10 08:10:12;;;;;;;8.15;6.80;;;24.50;67.70;25.10;101030.00;;;;5009331;28;20167;-48
2023/09/10 08:12:38;;;;;;;8.02;7.20;;;24.50;68.20;25.10;101032.00;;;;5009480;28;20184;-47
2023/09/10 08:15:04;;;;;;;6.90;6.30;;;24.60;67.90;25.10;101028.00;;;;5009153;28;20217;-48
2023/09/10 08:17:30;;;;;;;7.20;6.50;;;24.60;68.00;25.10;101029.00;;;;5008263;28;20282;-47
2023/09/10 08:19:56;;;;;;;7.32;6.50;;;24.70;67.80;25.20;101028.00;;;;5008294;28;20270;-48
2023/09/10 08:22:21;;;;;;;8.05;6.85;;;24.70;68.00;25.20;101040.00;;;;5009082;28;20204;-49
2023/09/10 08:24:48;;;;;;;7.57;6.78;;;24.70;68.80;25.20;101030.00;;;;5009119;28;20287;-48
2023/09/10 08:27:14;;;;;;;7.30;6.60;;;24.70;68.90;25.30;101022.00;;;;5008974;28;20207;-48
2023/09/10 08:29:40;;;;;;;7.00;6.40;;;24.80;68.50;25.30;101022.00;;;;5009318;28;20756;-48
2023/09/10 08:32:06;;;;;;;8.57;7.13;;;24.80;68.10;25.30;101020.00;;;;5009341;28;20185;-47
2023/09/10 08:34:32;;;;;;;9.93;7.07;;;24.80;69.30;25.30;101021.00;;;;5030335;28;20393;-47
2023/09/10 08:36:57;;;;;;;10.68;7.13;;;24.80;69.30;25.30;101017.00;;;;5017455;28;20184;-48
2023/09/10 08:39:23;;;;;;;8.43;6.85;;;24.90;69.20;25.30;101011.00;;;;5009354;28;20200;-49
2023/09/10 08:42:05;;;;;;;9.35;7.35;;;24.90;69.80;25.40;101023.00;;;;5010187;28;20286;-53
2023/09/10 08:44:31;;;;;;;8.85;7.20;;;24.90;69.60;25.40;101016.00;;;;4993735;28;20206;-48
2023/09/10 08:46:59;;;;;;;7.90;7.10;;;25.00;69.90;25.40;101014.00;;;;4991400;28;20215;-47
2023/09/10 08:49:25;;;;;;;7.57;6.85;;;25.00;70.50;25.40;101013.00;;;;5025084;28;20466;-54
2023/09/10 08:51:50;;;;;;;10.20;7.10;;;25.00;70.80;25.50;101012.00;;;;5002055;28;20180;-48
2023/09/10 08:54:16;;;;;;;7.90;7.10;;;25.00;71.30;25.50;101009.00;;;;4991594;28;20650;-48
2023/09/10 08:56:42;;;;;;;8.02;6.55;;;25.00;71.10;25.50;100994.00;;;;4991232;28;20195;-48
2023/09/10 08:59:08;;;;;;;7.68;6.35;;;25.10;71.40;25.50;101013.00;;;;4975544;28;20290;-48
2023/09/10 09:01:33;;;;;;;10.70;7.55;;;25.00;71.30;25.50;101008.00;;;;5007632;28;20741;-48
2023/09/10 09:03:59;;;;;;;10.18;8.10;;;25.10;71.80;25.60;101004.00;;;;5007488;28;20180;-48
2023/09/10 09:06:28;;;;;;;9.55;7.30;;;25.10;72.60;25.60;100986.00;;;;4994794;28;20202;-47
2023/09/10 09:08:54;;;;;;;10.70;8.00;;;25.10;73.30;25.60;100998.00;;;;4995647;28;20223;-47
2023/09/10 09:11:20;;;;;;;8.55;7.70;;;25.10;73.00;25.60;101004.00;;;;4995202;28;20645;-48
2023/09/10 09:13:47;;;;;;;10.25;7.10;;;25.10;73.20;25.60;101004.00;;;;4978994;28;20188;-49
2023/09/10 09:16:12;;;;;;;10.73;7.53;;;25.20;73.00;25.70;100996.00;;;;5012569;28;20559;-48
2023/09/10 09:18:39;;;;;;;8.77;7.03;;;25.20;72.90;25.70;101002.00;;;;5010577;28;20215;-48
2023/09/10 09:21:19;;;;;;;10.25;7.15;;;25.20;73.30;25.70;101007.00;;;;4995137;28;20254;-48
2023/09/10 09:23:59;;;;;;;8.75;7.07;;;25.20;73.20;25.70;101000.00;;;;5011214;28;20258;-47
2023/09/10 09:26:26;;;;;;;8.18;7.07;;;25.30;73.30;25.70;101001.00;;;;5012027;28;20171;-48
2023/09/10 09:28:52;;;;;;;13.18;7.55;;;25.30;73.80;25.80;101002.00;;;;5011991;28;20199;-53
2023/09/10 09:31:20;;;;;;;9.45;7.50;;;25.30;73.80;25.80;100989.00;;;;5010575;28;20190;-48
2023/09/10 09:33:45;;;;;;;10.45;7.07;;;25.30;73.70;25.80;100997.00;;;;5012322;28;20230;-53
2023/09/10 09:36:11;;;;;;;9.73;7.32;;;25.30;74.10;25.80;101000.00;;;;5012231;28;20257;-54
2023/09/10 09:38:48;;;;;;;9.30;7.05;;;25.30;73.40;25.80;100999.00;;;;5011866;28;20218;-54
2023/09/10 09:41:14;;;;;;;10.85;6.70;;;25.30;73.50;25.80;100992.00;;;;5012465;28;20817;-54
2023/09/10 09:43:40;;;;;;;11.77;7.43;;;25.30;73.50;25.90;100990.00;;;;4994089;28;20594;-53
2023/09/10 09:46:05;;;;;;;11.68;7.00;;;25.30;73.90;25.90;100990.00;;;;5012469;28;20188;-54
2023/09/10 09:48:32;;;;;;;9.07;6.80;;;25.30;74.40;25.90;100985.00;;;;5011706;28;20261;-54
2023/09/10 09:50:59;;;;;;;7.63;6.90;;;25.30;74.10;25.90;101001.00;;;;4994074;28;20184;-58
2023/09/10 09:53:30;;;;;;;7.88;6.40;;;25.40;75.00;26.00;100982.00;;;;5011488;28;20183;-56
2023/09/10 09:55:59;;;;;;;8.25;6.90;;;25.40;74.60;26.00;100988.00;;;;5011895;28;20684;-58
2023/09/10 09:58:24;;;;;;;10.15;6.97;;;25.40;74.60;26.00;100983.00;;;;5011264;28;20207;-58
2023/09/10 10:00:50;;;;;;;9.32;6.82;;;25.40;75.00;26.00;100981.00;;;;5011707;28;20190;-56
2023/09/10 10:03:19;;;;;;;8.18;6.63;;;25.40;75.10;26.00;100983.00;;;;5011717;28;20266;-56
2023/09/10 10:05:51;;;;;;;7.93;6.97;;;25.40;75.00;26.00;100975.00;;;;4993855;28;20183;-56
2023/09/10 10:08:18;;;;;;;7.20;6.43;;;25.40;75.00;26.00;100975.00;;;;5009445;28;20291;-56
2023/09/10 10:10:47;;;;;;;7.60;6.78;;;25.40;75.50;26.00;100965.00;;;;5009994;28;20646;-57
2023/09/10 10:13:18;;;;;;;8.13;6.43;;;25.50;75.20;26.10;100909.00;;;;5011142;28;20747;-56
2023/09/10 10:15:47;;;;;;;9.30;6.32;;;25.50;75.00;26.10;100971.00;;;;5005176;28;20654;-56
2023/09/10 10:18:17;;;;;;;7.88;6.20;;;25.50;75.10;26.10;100969.00;;;;5008667;28;20215;-55
2023/09/10 10:20:47;;;;;;;8.38;6.70;;;25.50;74.70;26.10;100968.00;;;;5010963;28;20258;-56
2023/09/10 10:23:17;;;;;;;10.60;6.50;;;25.50;75.00;26.10;100966.00;;;;5011039;28;20217;-56
2023/09/10 10:25:44;;;;;;;7.43;6.45;;;25.60;75.50;26.10;100963.00;;;;5011059;28;20185;-57
2023/09/10 10:28:10;;;;;;;7.82;6.15;;;25.60;75.50;26.20;100959.00;;;;5010658;28;20302;-55
2023/09/10 10:31:00;;;;;;;7.50;6.35;;;25.60;75.60;26.20;100961.00;;;;5011462;28;20728;-57
2023/09/10 10:33:26;;;;;;;8.15;6.22;;;25.60;75.50;26.20;100962.00;;;;5011084;28;20191;-56
2023/09/10 10:36:18;;;;;;;8.10;6.30;;;25.70;75.50;26.20;100951.00;;;;5011299;28;20175;-57
2023/09/10 10:38:44;;;;;;;9.52;6.15;;;25.70;75.60;26.20;100959.00;;;;4995892;28;20286;-56
2023/09/10 10:41:16;;;;;;;8.55;5.93;;;25.70;75.20;26.30;100954.00;;;;5015933;28;20203;-60
2023/09/10 10:43:50;;;;;;;8.50;5.95;;;25.70;75.20;26.30;100937.00;;;;5029119;28;20382;-56
2023/09/10 10:46:15;;;;;;;7.18;5.85;;;25.80;75.30;26.30;100948.00;;;;5009546;28;20206;-55